createdAt,value
2017-03-01T00:01:09.854Z,2.82
2017-03-01T00:02:19.336Z,2.78
2017-03-01T00:03:29.185Z,2.82
2017-03-01T00:04:39.448Z,2.85
2017-03-01T00:05:49.310Z,3.14
2017-03-01T00:06:58.391Z,3.1
2017-03-01T00:08:07.922Z,3.18
2017-03-01T00:09:16.611Z,3.11
2017-03-01T00:10:26.103Z,3.1
2017-03-01T00:11:35.948Z,2.95
2017-03-01T00:12:45.817Z,2.93
2017-03-01T00:13:54.880Z,2.84
2017-03-01T00:15:04.372Z,2.82
2017-03-01T00:16:14.231Z,2.85
2017-03-01T00:17:23.717Z,2.81
2017-03-01T00:18:32.806Z,2.82
2017-03-01T00:19:43.051Z,2.79
2017-03-01T00:20:52.938Z,2.81
2017-03-01T00:22:02.791Z,2.81
2017-03-01T00:23:12.659Z,2.81
2017-03-01T00:24:21.745Z,2.82
2017-03-01T00:25:31.595Z,2.77
2017-03-01T00:26:40.673Z,2.74
2017-03-01T00:27:50.543Z,2.81
2017-03-01T00:29:00.396Z,2.72
2017-03-01T00:30:09.493Z,2.89
2017-03-01T00:31:18.948Z,2.87
2017-03-01T00:32:28.035Z,3.02
2017-03-01T00:33:38.642Z,3.26
2017-03-01T00:34:48.105Z,3.24
2017-03-01T00:35:57.193Z,3.26
2017-03-01T00:37:07.804Z,3.03
2017-03-01T00:38:17.282Z,2.96
2017-03-01T00:39:26.361Z,2.96
2017-03-01T00:40:36.206Z,2.87
2017-03-01T00:41:45.659Z,2.87
2017-03-01T00:42:55.538Z,2.87
2017-03-01T00:44:04.872Z,2.84
2017-03-01T00:45:14.725Z,2.77
2017-03-01T00:46:24.576Z,2.67
2017-03-01T00:47:34.046Z,2.67
2017-03-01T00:48:43.115Z,2.75
2017-03-01T00:49:52.578Z,2.71
2017-03-01T00:51:02.044Z,2.74
2017-03-01T00:52:11.925Z,2.75
2017-03-01T00:53:21.779Z,2.75
2017-03-01T00:54:31.621Z,2.71
2017-03-01T00:55:40.315Z,2.69
2017-03-01T00:56:49.394Z,2.77
2017-03-01T00:57:58.893Z,2.78
2017-03-01T00:59:08.376Z,2.99
2017-03-01T01:00:17.455Z,3.1
2017-03-01T01:01:27.320Z,3.08
2017-03-01T01:02:36.408Z,3.11
2017-03-01T01:03:46.249Z,3.13
2017-03-01T01:04:55.331Z,2.97
2017-03-01T01:06:05.581Z,2.92
2017-03-01T01:07:15.417Z,2.89
2017-03-01T01:08:24.888Z,2.79
2017-03-01T01:09:35.135Z,2.84
2017-03-01T01:10:44.601Z,2.79
2017-03-01T01:11:53.684Z,2.77
2017-03-01T01:13:03.537Z,2.79
2017-03-01T01:14:13.381Z,2.71
2017-03-01T01:15:22.843Z,2.67
2017-03-01T01:16:32.307Z,2.78
2017-03-01T01:17:42.155Z,2.71
2017-03-01T01:18:51.641Z,2.74
2017-03-01T01:20:01.480Z,2.78
2017-03-01T01:21:10.579Z,2.71
2017-03-01T01:22:19.671Z,2.78
2017-03-01T01:23:29.507Z,2.82
2017-03-01T01:24:38.981Z,2.95
2017-03-01T01:25:48.112Z,3.05
2017-03-01T01:26:57.227Z,3.24
2017-03-01T01:28:07.071Z,3.21
2017-03-01T01:29:16.913Z,3.06
2017-03-01T01:30:26.400Z,3
2017-03-01T01:31:35.864Z,2.95
2017-03-01T01:32:45.729Z,2.87
2017-03-01T01:33:55.225Z,2.78
2017-03-01T01:35:05.889Z,2.82
2017-03-01T01:36:16.130Z,2.79
2017-03-01T01:37:24.819Z,2.75
2017-03-01T01:38:33.543Z,2.81
2017-03-01T01:39:43.755Z,2.75
2017-03-01T01:40:53.220Z,2.77
2017-03-01T01:42:01.938Z,2.78
2017-03-01T01:43:10.649Z,2.67
2017-03-01T01:44:20.880Z,2.67
2017-03-01T01:45:30.005Z,2.78
2017-03-01T01:46:39.473Z,2.78
2017-03-01T01:47:49.342Z,2.78
2017-03-01T01:48:58.830Z,2.75
2017-03-01T01:50:09.455Z,2.82
2017-03-01T01:51:19.704Z,2.93
2017-03-01T01:52:28.415Z,3
2017-03-01T01:53:38.264Z,3.05
2017-03-01T01:54:47.358Z,3.08
2017-03-01T01:55:56.841Z,3.05
2017-03-01T01:57:05.928Z,2.97
2017-03-01T01:58:15.028Z,2.97
2017-03-01T01:59:24.501Z,2.99
2017-03-01T02:00:34.329Z,3
2017-03-01T02:01:43.803Z,2.89
2017-03-01T02:02:54.033Z,2.96
2017-03-01T02:04:03.880Z,3
2017-03-01T02:05:13.349Z,2.99
2017-03-01T02:06:22.477Z,3.03
2017-03-01T02:07:32.338Z,3.06
2017-03-01T02:08:42.578Z,3.06
2017-03-01T02:09:52.049Z,3.06
2017-03-01T02:11:01.528Z,3.08
2017-03-01T02:12:11.385Z,3.1
2017-03-01T02:13:20.851Z,3.17
2017-03-01T02:14:30.308Z,3.26
2017-03-01T02:15:39.773Z,3.33
2017-03-01T02:16:48.482Z,3.42
2017-03-01T02:17:57.582Z,3.5
2017-03-01T02:19:07.064Z,3.4
2017-03-01T02:20:16.944Z,3.58
2017-03-01T02:21:26.434Z,3.54
2017-03-01T02:22:35.922Z,3.55
2017-03-01T02:23:44.996Z,3.7
2017-03-01T02:24:55.240Z,3.8
2017-03-01T02:26:04.705Z,3.76
2017-03-01T02:27:14.940Z,3.69
2017-03-01T02:28:25.176Z,3.68
2017-03-01T02:29:34.284Z,3.58
2017-03-01T02:30:44.134Z,3.54
2017-03-01T02:31:53.607Z,3.58
2017-03-01T02:33:03.076Z,3.45
2017-03-01T02:34:12.145Z,3.45
2017-03-01T02:35:22.018Z,3.42
2017-03-01T02:36:31.469Z,3.42
2017-03-01T02:37:40.561Z,3.42
2017-03-01T02:38:50.030Z,3.42
2017-03-01T02:39:59.900Z,3.42
2017-03-01T02:41:09.390Z,3.4
2017-03-01T02:42:18.857Z,3.4
2017-03-01T02:43:29.476Z,3.31
2017-03-01T02:44:39.338Z,3.28
2017-03-01T02:45:49.568Z,3.23
2017-03-01T02:46:59.415Z,3.31
2017-03-01T02:48:09.659Z,3.29
2017-03-01T02:49:19.114Z,3.29
2017-03-01T02:50:28.591Z,3.31
2017-03-01T02:51:38.064Z,3.31
2017-03-01T02:52:47.526Z,3.4
2017-03-01T02:53:56.610Z,3.4
2017-03-01T02:55:06.464Z,3.36
2017-03-01T02:56:15.948Z,3.6
2017-03-01T02:57:25.045Z,3.6
2017-03-01T02:58:34.507Z,3.51
2017-03-01T02:59:44.409Z,3.66
2017-03-01T03:00:54.692Z,3.62
2017-03-01T03:02:04.538Z,3.65
2017-03-01T03:03:14.395Z,3.6
2017-03-01T03:04:23.085Z,3.58
2017-03-01T03:05:32.556Z,3.58
2017-03-01T03:06:42.775Z,3.61
2017-03-01T03:07:53.045Z,3.68
2017-03-01T03:09:03.278Z,3.8
2017-03-01T03:10:13.154Z,3.84
2017-03-01T03:11:21.859Z,3.75
2017-03-01T03:12:30.562Z,3.83
2017-03-01T03:13:40.842Z,3.7
2017-03-01T03:14:50.719Z,3.72
2017-03-01T03:15:59.793Z,3.76
2017-03-01T03:17:08.883Z,3.7
2017-03-01T03:18:19.120Z,3.68
2017-03-01T03:19:28.192Z,3.61
2017-03-01T03:20:38.463Z,3.69
2017-03-01T03:21:47.570Z,3.7
2017-03-01T03:22:56.670Z,3.68
2017-03-01T03:24:06.948Z,3.55
2017-03-01T03:25:16.025Z,3.69
2017-03-01T03:26:25.882Z,3.69
2017-03-01T03:27:35.737Z,3.69
2017-03-01T03:28:45.582Z,3.7
2017-03-01T03:29:55.089Z,3.66
2017-03-01T03:31:04.607Z,3.7
2017-03-01T03:32:14.440Z,3.69
2017-03-01T03:33:23.936Z,3.68
2017-03-01T03:34:33.802Z,3.68
2017-03-01T03:35:44.125Z,3.73
2017-03-01T03:36:53.705Z,3.69
2017-03-01T03:38:03.585Z,3.66
2017-03-01T03:39:12.337Z,3.69
2017-03-01T03:40:21.032Z,3.69
2017-03-01T03:41:30.518Z,3.69
2017-03-01T03:42:39.671Z,3.78
2017-03-01T03:43:49.175Z,3.8
2017-03-01T03:44:58.660Z,3.87
2017-03-01T03:46:08.146Z,3.97
2017-03-01T03:47:17.614Z,3.91
2017-03-01T03:48:27.477Z,3.88
2017-03-01T03:49:37.706Z,3.98
2017-03-01T03:50:47.938Z,4.04
2017-03-01T03:51:57.800Z,4.09
2017-03-01T03:53:07.279Z,4.09
2017-03-01T03:54:16.755Z,4.16
2017-03-01T03:55:25.460Z,4.18
2017-03-01T03:56:34.972Z,4.18
2017-03-01T03:57:45.231Z,4.12
2017-03-01T03:58:54.709Z,4.23
2017-03-01T04:00:04.218Z,4.26
2017-03-01T04:01:13.699Z,4.29
2017-03-01T04:02:23.955Z,4.29
2017-03-01T04:03:33.054Z,4.36
2017-03-01T04:04:42.126Z,4.33
2017-03-01T04:05:51.627Z,4.34
2017-03-01T04:07:01.529Z,4.45
2017-03-01T04:08:11.035Z,4.59
2017-03-01T04:09:20.517Z,4.85
2017-03-01T04:10:29.591Z,5.06
2017-03-01T04:11:39.829Z,5.12
2017-03-01T04:12:49.734Z,4.94
2017-03-01T04:13:59.245Z,4.78
2017-03-01T04:15:08.743Z,4.8
2017-03-01T04:16:18.233Z,4.72
2017-03-01T04:17:27.718Z,4.8
2017-03-01T04:18:37.190Z,4.77
2017-03-01T04:19:47.076Z,4.72
2017-03-01T04:20:56.942Z,4.75
2017-03-01T04:22:06.066Z,4.84
2017-03-01T04:23:15.948Z,4.77
2017-03-01T04:24:24.654Z,4.7
2017-03-01T04:25:34.538Z,4.75
2017-03-01T04:26:44.035Z,4.78
2017-03-01T04:27:53.527Z,4.77
2017-03-01T04:29:03.764Z,4.94
2017-03-01T04:30:13.628Z,4.86
2017-03-01T04:31:23.125Z,4.89
2017-03-01T04:32:32.975Z,5.07
2017-03-01T04:33:42.465Z,5.04
2017-03-01T04:34:51.725Z,5.21
2017-03-01T04:36:01.198Z,5.18
2017-03-01T04:37:11.086Z,5.1
2017-03-01T04:38:19.813Z,5.13
2017-03-01T04:39:30.060Z,5.12
2017-03-01T04:40:38.768Z,5.12
2017-03-01T04:41:49.023Z,5.04
2017-03-01T04:42:58.882Z,5.12
2017-03-01T04:44:07.979Z,5.02
2017-03-01T04:45:17.882Z,5.03
2017-03-01T04:46:27.000Z,5.09
2017-03-01T04:47:37.257Z,5.02
2017-03-01T04:48:46.726Z,5.1
2017-03-01T04:49:55.436Z,5.07
2017-03-01T04:51:04.924Z,5.13
2017-03-01T04:52:14.409Z,5.07
2017-03-01T04:53:24.646Z,5.09
2017-03-01T04:54:34.134Z,5.1
2017-03-01T04:55:43.241Z,5.17
2017-03-01T04:56:52.344Z,5.13
2017-03-01T04:58:01.459Z,5.17
2017-03-01T04:59:12.073Z,5.22
2017-03-01T05:00:21.532Z,5.12
2017-03-01T05:01:31.016Z,5.1
2017-03-01T05:02:40.868Z,5.17
2017-03-01T05:03:49.965Z,5.31
2017-03-01T05:04:59.458Z,5.33
2017-03-01T05:06:08.933Z,5.48
2017-03-01T05:07:18.799Z,5.38
2017-03-01T05:08:29.437Z,5.31
2017-03-01T05:09:38.936Z,5.3
2017-03-01T05:10:48.849Z,5.33
2017-03-01T05:11:58.732Z,5.33
2017-03-01T05:13:08.991Z,5.31
2017-03-01T05:14:19.255Z,5.31
2017-03-01T05:15:29.148Z,5.24
2017-03-01T05:16:38.266Z,5.21
2017-03-01T05:17:47.344Z,5.18
2017-03-01T05:18:56.896Z,5.18
2017-03-01T05:20:07.195Z,5.17
2017-03-01T05:21:16.715Z,5.18
2017-03-01T05:22:26.205Z,5.12
2017-03-01T05:23:35.694Z,5.1
2017-03-01T05:24:45.587Z,5.15
2017-03-01T05:25:55.070Z,5.04
2017-03-01T05:27:05.323Z,5.1
2017-03-01T05:28:14.824Z,5.1
2017-03-01T05:29:24.289Z,5.15
2017-03-01T05:30:33.785Z,5.12
2017-03-01T05:31:43.656Z,5.1
2017-03-01T05:32:53.192Z,5.18
2017-03-01T05:34:03.073Z,5.09
2017-03-01T05:35:12.685Z,5.3
2017-03-01T05:36:22.300Z,5.21
2017-03-01T05:37:31.013Z,5.1
2017-03-01T05:38:41.444Z,5.07
2017-03-01T05:39:50.712Z,5.03
2017-03-01T05:41:00.566Z,5.04
2017-03-01T05:42:10.130Z,5.02
2017-03-01T05:43:20.407Z,5.06
2017-03-01T05:44:29.493Z,5.03
2017-03-01T05:45:39.400Z,5.15
2017-03-01T05:46:48.958Z,5.1
2017-03-01T05:47:59.207Z,5.06
2017-03-01T05:49:09.506Z,5.02
2017-03-01T05:50:18.629Z,5.03
2017-03-01T05:51:28.503Z,4.97
2017-03-01T05:52:37.623Z,4.92
2017-03-01T05:53:46.732Z,4.84
2017-03-01T05:54:55.808Z,4.89
2017-03-01T05:56:04.532Z,4.96
2017-03-01T05:57:13.647Z,5
2017-03-01T05:58:22.733Z,5.04
2017-03-01T05:59:32.573Z,5.03
2017-03-01T06:00:41.656Z,5.1
2017-03-01T06:01:51.497Z,5.09
2017-03-01T06:03:01.371Z,5.04
2017-03-01T06:04:11.623Z,5.1
2017-03-01T06:05:21.875Z,5.09
2017-03-01T06:06:30.965Z,5.1
2017-03-01T06:07:40.064Z,5.09
2017-03-01T06:08:49.146Z,5.06
2017-03-01T06:09:59.083Z,5.13
2017-03-01T06:11:08.920Z,5.07
2017-03-01T06:12:18.943Z,5.09
2017-03-01T06:13:28.418Z,5.09
2017-03-01T06:14:38.299Z,5.07
2017-03-01T06:15:47.785Z,5.13
2017-03-01T06:16:57.649Z,5.15
2017-03-01T06:18:07.548Z,5.15
2017-03-01T06:19:17.056Z,5.09
2017-03-01T06:20:27.305Z,5.17
2017-03-01T06:21:36.767Z,5.04
2017-03-01T06:22:46.624Z,5.13
2017-03-01T06:23:56.094Z,5.09
2017-03-01T06:25:05.571Z,5.17
2017-03-01T06:26:15.433Z,5.09
2017-03-01T06:27:24.911Z,5.17
2017-03-01T06:28:34.378Z,5.18
2017-03-01T06:29:44.257Z,5.13
2017-03-01T06:30:54.490Z,5.18
2017-03-01T06:32:03.946Z,5.17
2017-03-01T06:33:13.415Z,5.2
2017-03-01T06:34:22.887Z,5.2
2017-03-01T06:35:33.132Z,5.15
2017-03-01T06:36:42.979Z,5.17
2017-03-01T06:37:52.060Z,5.2
2017-03-01T06:39:01.540Z,5.13
2017-03-01T06:40:11.400Z,5.2
2017-03-01T06:41:20.870Z,5.2
2017-03-01T06:42:30.332Z,5.17
2017-03-01T06:43:40.585Z,5.13
2017-03-01T06:44:50.449Z,5.07
2017-03-01T06:45:59.916Z,5.13
2017-03-01T06:47:09.008Z,5.2
2017-03-01T06:48:18.480Z,5.1
2017-03-01T06:49:28.718Z,5.12
2017-03-01T06:50:38.570Z,5.12
2017-03-01T06:51:47.652Z,5.09
2017-03-01T06:52:56.743Z,5.1
2017-03-01T06:54:06.580Z,5.15
2017-03-01T06:55:16.063Z,5.24
2017-03-01T06:56:25.145Z,5.21
2017-03-01T06:57:34.599Z,5.18
2017-03-01T06:58:44.060Z,5.2
2017-03-01T06:59:54.290Z,5.18
2017-03-01T07:01:04.536Z,5.18
2017-03-01T07:02:14.769Z,5.2
2017-03-01T07:03:24.255Z,5.04
2017-03-01T07:04:33.345Z,5.13
2017-03-01T07:05:42.448Z,5.13
2017-03-01T07:06:52.690Z,5.18
2017-03-01T07:08:02.157Z,5.04
2017-03-01T07:09:12.033Z,5.1
2017-03-01T07:10:21.897Z,5.1
2017-03-01T07:11:30.597Z,5.1
2017-03-01T07:12:40.466Z,5.15
2017-03-01T07:13:49.938Z,5.35
2017-03-01T07:15:00.581Z,5.3
2017-03-01T07:16:10.037Z,5.3
2017-03-01T07:17:19.112Z,5.46
2017-03-01T07:18:28.965Z,5.07
2017-03-01T07:19:38.055Z,5.07
2017-03-01T07:20:47.902Z,5.09
2017-03-01T07:21:57.754Z,5.04
2017-03-01T07:23:07.993Z,5.12
2017-03-01T07:24:17.860Z,5.04
2017-03-01T07:25:28.093Z,5.04
2017-03-01T07:26:37.571Z,5.12
2017-03-01T07:27:47.427Z,5.13
2017-03-01T07:28:56.514Z,5.15
2017-03-01T07:30:06.363Z,5.2
2017-03-01T07:31:16.230Z,5.25
2017-03-01T07:32:25.693Z,5.21
2017-03-01T07:33:35.173Z,5.21
2017-03-01T07:34:44.628Z,5.3
2017-03-01T07:35:53.737Z,5.33
2017-03-01T07:37:03.212Z,5.3
2017-03-01T07:38:13.058Z,5.28
2017-03-01T07:39:22.559Z,5.33
2017-03-01T07:40:32.836Z,5.35
2017-03-01T07:41:42.304Z,5.35
2017-03-01T07:42:52.149Z,5.35
2017-03-01T07:44:01.996Z,5.35
2017-03-01T07:45:11.469Z,5.28
2017-03-01T07:46:20.971Z,5.35
2017-03-01T07:47:30.816Z,5.42
2017-03-01T07:48:40.353Z,5.28
2017-03-01T07:49:49.891Z,5.3
2017-03-01T07:50:59.353Z,5.35
2017-03-01T07:52:08.830Z,5.28
2017-03-01T07:53:18.292Z,5.39
2017-03-01T07:54:27.018Z,5.43
2017-03-01T07:55:36.100Z,5.38
2017-03-01T07:56:45.555Z,5.39
2017-03-01T07:57:54.631Z,5.4
2017-03-01T07:59:04.506Z,5.46
2017-03-01T08:00:14.001Z,5.4
2017-03-01T08:01:23.486Z,5.39
2017-03-01T08:02:32.589Z,5.51
2017-03-01T08:03:41.715Z,5.56
2017-03-01T08:04:51.215Z,5.6
2017-03-01T08:05:59.930Z,5.56
2017-03-01T08:07:09.813Z,5.56
2017-03-01T08:08:19.296Z,5.63
2017-03-01T08:09:28.381Z,5.68
2017-03-01T08:10:37.860Z,5.72
2017-03-01T08:11:46.962Z,5.67
2017-03-01T08:12:57.204Z,5.67
2017-03-01T08:14:06.304Z,5.67
2017-03-01T08:15:16.172Z,5.64
2017-03-01T08:16:25.294Z,5.75
2017-03-01T08:17:34.770Z,5.75
2017-03-01T08:18:44.666Z,5.75
2017-03-01T08:19:54.135Z,5.81
2017-03-01T08:21:04.184Z,5.82
2017-03-01T08:22:13.662Z,5.94
2017-03-01T08:23:23.557Z,5.91
2017-03-01T08:24:33.086Z,5.9
2017-03-01T08:25:42.580Z,6.01
2017-03-01T08:26:52.451Z,6.12
2017-03-01T08:28:01.555Z,6.09
2017-03-01T08:29:10.309Z,6.03
2017-03-01T08:30:19.435Z,5.89
2017-03-01T08:31:29.297Z,5.91
2017-03-01T08:32:38.882Z,6
2017-03-01T08:33:47.997Z,6.04
2017-03-01T08:34:57.097Z,6.18
2017-03-01T08:36:06.196Z,6.21
2017-03-01T08:37:14.910Z,6.19
2017-03-01T08:38:23.652Z,6.14
2017-03-01T08:39:33.915Z,6.06
2017-03-01T08:40:43.022Z,6.11
2017-03-01T08:41:53.399Z,6.12
2017-03-01T08:43:02.490Z,6.21
2017-03-01T08:44:12.004Z,6.33
2017-03-01T08:45:22.301Z,6.33
2017-03-01T08:46:31.761Z,6.36
2017-03-01T08:47:40.856Z,6.4
2017-03-01T08:48:50.349Z,6.41
2017-03-01T08:50:00.614Z,6.33
2017-03-01T08:51:10.452Z,6.31
2017-03-01T08:52:20.696Z,6.19
2017-03-01T08:53:30.975Z,6.06
2017-03-01T08:54:41.254Z,6
2017-03-01T08:55:51.905Z,5.96
2017-03-01T08:57:01.431Z,6
2017-03-01T08:58:10.935Z,6.12
2017-03-01T08:59:20.409Z,6.31
2017-03-01T09:00:30.320Z,6.21
2017-03-01T09:01:40.192Z,6.36
2017-03-01T09:02:50.041Z,6.31
2017-03-01T09:03:59.518Z,6.48
2017-03-01T09:05:08.610Z,6.54
2017-03-01T09:06:18.620Z,6.52
2017-03-01T09:07:27.791Z,6.61
2017-03-01T09:08:37.254Z,6.55
2017-03-01T09:09:47.136Z,6.55
2017-03-01T09:10:57.039Z,6.69
2017-03-01T09:12:06.995Z,6.69
2017-03-01T09:13:17.296Z,6.69
2017-03-01T09:14:27.145Z,6.73
2017-03-01T09:15:37.766Z,6.8
2017-03-01T09:16:47.349Z,6.8
2017-03-01T09:17:56.834Z,6.77
2017-03-01T09:19:07.058Z,6.79
2017-03-01T09:20:16.554Z,6.8
2017-03-01T09:21:26.089Z,6.97
2017-03-01T09:22:35.970Z,6.98
2017-03-01T09:23:45.470Z,7.1
2017-03-01T09:24:54.578Z,7.05
2017-03-01T09:26:03.273Z,7.13
2017-03-01T09:27:13.134Z,7.06
2017-03-01T09:28:23.043Z,6.97
2017-03-01T09:29:33.337Z,7.05
2017-03-01T09:30:43.232Z,7.06
2017-03-01T09:31:53.140Z,6.97
2017-03-01T09:33:02.655Z,6.92
2017-03-01T09:34:12.154Z,6.89
2017-03-01T09:35:21.654Z,6.88
2017-03-01T09:36:31.538Z,6.91
2017-03-01T09:37:40.322Z,6.91
2017-03-01T09:38:49.444Z,6.92
2017-03-01T09:40:00.163Z,6.89
2017-03-01T09:41:09.677Z,6.79
2017-03-01T09:42:19.718Z,6.77
2017-03-01T09:43:29.266Z,6.69
2017-03-01T09:44:39.229Z,6.69
2017-03-01T09:45:48.367Z,6.8
2017-03-01T09:46:57.956Z,6.81
2017-03-01T09:48:07.453Z,6.81
2017-03-01T09:49:16.944Z,6.77
2017-03-01T09:50:26.061Z,6.81
2017-03-01T09:51:35.542Z,6.84
2017-03-01T09:52:44.623Z,6.8
2017-03-01T09:53:54.176Z,6.84
2017-03-01T09:55:03.652Z,6.89
2017-03-01T09:56:13.142Z,6.92
2017-03-01T09:57:23.010Z,6.91
2017-03-01T09:58:32.897Z,7.05
2017-03-01T09:59:42.093Z,7.1
2017-03-01T10:00:50.828Z,7.25
2017-03-01T10:02:00.300Z,7.28
2017-03-01T10:03:10.564Z,7.27
2017-03-01T10:04:19.284Z,7.23
2017-03-01T10:05:28.409Z,7.43
2017-03-01T10:06:37.941Z,7.67
2017-03-01T10:07:46.709Z,7.98
2017-03-01T10:08:56.578Z,8.12
2017-03-01T10:10:06.068Z,8.19
2017-03-01T10:11:16.008Z,8.33
2017-03-01T10:12:25.623Z,8.38
2017-03-01T10:13:35.539Z,8.44
2017-03-01T10:14:45.043Z,8.47
2017-03-01T10:15:54.563Z,8.7
2017-03-01T10:17:04.060Z,8.7
2017-03-01T10:18:13.535Z,8.68
2017-03-01T10:19:22.649Z,8.58
2017-03-01T10:20:32.494Z,8.45
2017-03-01T10:21:42.347Z,8.11
2017-03-01T10:22:52.605Z,7.95
2017-03-01T10:24:02.453Z,7.77
2017-03-01T10:25:11.942Z,7.64
2017-03-01T10:26:21.804Z,7.69
2017-03-01T10:27:31.662Z,7.8
2017-03-01T10:28:40.760Z,7.9
2017-03-01T10:29:50.612Z,7.92
2017-03-01T10:31:00.475Z,7.92
2017-03-01T10:32:09.973Z,7.8
2017-03-01T10:33:18.695Z,7.98
2017-03-01T10:34:28.185Z,8.16
2017-03-01T10:35:37.654Z,8.2
2017-03-01T10:36:46.737Z,8.26
2017-03-01T10:37:56.589Z,8.89
2017-03-01T10:39:06.052Z,9.33
2017-03-01T10:40:15.142Z,9.78
2017-03-01T10:41:24.616Z,10.29
2017-03-01T10:42:34.107Z,10.4
2017-03-01T10:43:43.210Z,9.74
2017-03-01T10:44:52.301Z,9.24
2017-03-01T10:46:02.185Z,8.71
2017-03-01T10:47:12.452Z,8.34
2017-03-01T10:48:21.932Z,8.22
2017-03-01T10:49:30.654Z,8.04
2017-03-01T10:50:40.149Z,8.02
2017-03-01T10:51:50.003Z,7.98
2017-03-01T10:52:59.492Z,7.95
2017-03-01T10:54:09.750Z,8.04
2017-03-01T10:55:19.224Z,8.02
2017-03-01T10:56:29.071Z,8.11
2017-03-01T10:57:39.305Z,8.22
2017-03-01T10:58:49.169Z,8.29
2017-03-01T10:59:58.633Z,8.37
2017-03-01T11:01:08.511Z,8.41
2017-03-01T11:02:17.987Z,8.65
2017-03-01T11:03:27.065Z,8.61
2017-03-01T11:04:35.779Z,8.58
2017-03-01T11:05:44.874Z,8.41
2017-03-01T11:06:53.984Z,8.29
2017-03-01T11:08:03.113Z,8.29
2017-03-01T11:09:12.995Z,8.26
2017-03-01T11:10:22.862Z,8.29
2017-03-01T11:11:31.956Z,8.61
2017-03-01T11:12:41.801Z,9.69
2017-03-01T11:13:51.641Z,10.34
2017-03-01T11:15:01.873Z,10.76
2017-03-01T11:16:11.746Z,11.15
2017-03-01T11:17:21.246Z,11.51
2017-03-01T11:18:30.729Z,11.64
2017-03-01T11:19:39.832Z,11.69
2017-03-01T11:20:48.931Z,10.86
2017-03-01T11:21:58.792Z,10.2
2017-03-01T11:23:08.282Z,10.15
2017-03-01T11:24:17.765Z,10.53
2017-03-01T11:25:26.857Z,10.6
2017-03-01T11:26:36.705Z,10.3
2017-03-01T11:27:47.377Z,10.2
2017-03-01T11:28:57.616Z,9.75
2017-03-01T11:30:07.110Z,9.68
2017-03-01T11:31:16.581Z,9.36
2017-03-01T11:32:26.056Z,9.38
2017-03-01T11:33:36.287Z,9.24
2017-03-01T11:34:45.791Z,9.08
2017-03-01T11:35:56.042Z,9.72
2017-03-01T11:37:04.748Z,10.22
2017-03-01T11:38:14.993Z,10.15
2017-03-01T11:39:24.853Z,10.09
2017-03-01T11:40:34.317Z,10.33
2017-03-01T11:41:43.026Z,10.32
2017-03-01T11:42:52.180Z,10.12
2017-03-01T11:44:02.032Z,9.78
2017-03-01T11:45:11.503Z,10.04
2017-03-01T11:46:20.998Z,10.17
2017-03-01T11:47:30.873Z,10.27
2017-03-01T11:48:39.985Z,10.12
2017-03-01T11:49:49.440Z,9.86
2017-03-01T11:50:58.942Z,9.79
2017-03-01T11:52:09.203Z,9.76
2017-03-01T11:53:17.945Z,9.83
2017-03-01T11:54:28.217Z,10.01
2017-03-01T11:55:37.687Z,9.99
2017-03-01T11:56:47.548Z,10.17
2017-03-01T11:57:57.835Z,10.11
2017-03-01T11:59:07.318Z,10.11
2017-03-01T12:00:16.794Z,10.17
2017-03-01T12:01:25.894Z,10.08
2017-03-01T12:02:35.397Z,10.05
2017-03-01T12:03:44.864Z,10.17
2017-03-01T12:04:53.934Z,10.3
2017-03-01T12:06:03.793Z,10.42
2017-03-01T12:07:12.911Z,10.23
2017-03-01T12:08:22.404Z,10.12
2017-03-01T12:09:31.892Z,9.91
2017-03-01T12:10:42.117Z,9.78
2017-03-01T12:11:51.986Z,9.65
2017-03-01T12:13:02.254Z,9.72
2017-03-01T12:14:12.498Z,9.65
2017-03-01T12:15:22.385Z,9.51
2017-03-01T12:16:32.613Z,9.56
2017-03-01T12:17:42.469Z,9.43
2017-03-01T12:18:51.974Z,9.36
2017-03-01T12:20:01.485Z,9.4
2017-03-01T12:21:10.579Z,9.38
2017-03-01T12:22:20.814Z,9.46
2017-03-01T12:23:30.280Z,9.65
2017-03-01T12:24:40.121Z,9.71
2017-03-01T12:25:49.600Z,9.68
2017-03-01T12:26:59.452Z,9.68
2017-03-01T12:28:08.551Z,9.74
2017-03-01T12:29:18.420Z,9.74
2017-03-01T12:30:28.300Z,9.74
2017-03-01T12:31:37.794Z,9.94
2017-03-01T12:32:47.263Z,10.08
2017-03-01T12:33:56.754Z,10.08
2017-03-01T12:35:06.618Z,9.97
2017-03-01T12:36:16.878Z,10.08
2017-03-01T12:37:26.358Z,9.83
2017-03-01T12:38:35.441Z,9.86
2017-03-01T12:39:44.910Z,9.81
2017-03-01T12:40:55.162Z,10.01
2017-03-01T12:42:04.647Z,10.09
2017-03-01T12:43:14.526Z,10.17
2017-03-01T12:44:24.412Z,10.04
2017-03-01T12:45:33.882Z,9.93
2017-03-01T12:46:42.982Z,10.11
2017-03-01T12:47:52.479Z,10.25
2017-03-01T12:49:01.964Z,10.11
2017-03-01T12:50:12.214Z,10.02
2017-03-01T12:51:22.096Z,9.76
2017-03-01T12:52:31.579Z,9.76
2017-03-01T12:53:41.449Z,9.65
2017-03-01T12:54:50.533Z,9.56
2017-03-01T12:56:00.025Z,9.51
2017-03-01T12:57:09.113Z,9.68
2017-03-01T12:58:18.972Z,9.64
2017-03-01T12:59:28.078Z,9.76
2017-03-01T13:00:38.685Z,9.78
2017-03-01T13:01:47.390Z,9.83
2017-03-01T13:02:56.485Z,9.86
2017-03-01T13:04:06.335Z,10.08
2017-03-01T13:05:16.219Z,10.25
2017-03-01T13:06:24.926Z,10.32
2017-03-01T13:07:34.806Z,10.32
2017-03-01T13:08:44.683Z,10.34
2017-03-01T13:09:53.415Z,10.52
2017-03-01T13:11:03.267Z,10.6
2017-03-01T13:12:13.128Z,10.51
2017-03-01T13:13:22.610Z,10.61
2017-03-01T13:14:31.716Z,10.67
2017-03-01T13:15:41.946Z,10.76
2017-03-01T13:16:52.200Z,10.66
2017-03-01T13:18:02.037Z,10.53
2017-03-01T13:19:11.520Z,10.45
2017-03-01T13:20:21.386Z,10.52
2017-03-01T13:21:31.287Z,10.4
2017-03-01T13:22:40.809Z,10.53
2017-03-01T13:23:49.904Z,10.56
2017-03-01T13:24:59.362Z,10.51
2017-03-01T13:26:08.067Z,10.56
2017-03-01T13:27:17.933Z,10.48
2017-03-01T13:28:28.585Z,10.55
2017-03-01T13:29:38.456Z,10.33
2017-03-01T13:30:48.752Z,10.2
2017-03-01T13:31:58.226Z,10.18
2017-03-01T13:33:07.718Z,10.22
2017-03-01T13:34:17.558Z,10.18
2017-03-01T13:35:27.043Z,10.27
2017-03-01T13:36:36.506Z,10.34
2017-03-01T13:37:46.395Z,10.27
2017-03-01T13:38:55.121Z,10.2
2017-03-01T13:40:04.971Z,9.99
2017-03-01T13:41:14.823Z,9.81
2017-03-01T13:42:24.695Z,9.84
2017-03-01T13:43:34.925Z,9.79
2017-03-01T13:44:44.408Z,9.61
2017-03-01T13:45:53.137Z,9.64
2017-03-01T13:47:02.614Z,9.72
2017-03-01T13:48:12.080Z,9.76
2017-03-01T13:49:21.591Z,9.79
2017-03-01T13:50:31.844Z,9.78
2017-03-01T13:51:40.561Z,9.78
2017-03-01T13:52:49.666Z,9.71
2017-03-01T13:53:59.179Z,9.79
2017-03-01T13:55:08.268Z,9.6
2017-03-01T13:56:17.744Z,9.61
2017-03-01T13:57:27.226Z,9.64
2017-03-01T13:58:36.318Z,9.66
2017-03-01T13:59:45.412Z,9.58
2017-03-01T14:00:55.658Z,9.64
2017-03-01T14:02:05.114Z,9.54
2017-03-01T14:03:15.360Z,9.35
2017-03-01T14:04:24.474Z,9.38
2017-03-01T14:05:33.953Z,9.39
2017-03-01T14:06:43.809Z,9.47
2017-03-01T14:07:53.681Z,9.56
2017-03-01T14:09:03.544Z,9.46
2017-03-01T14:10:12.637Z,9.54
2017-03-01T14:11:21.730Z,9.61
2017-03-01T14:12:31.212Z,9.71
2017-03-01T14:13:40.694Z,9.74
2017-03-01T14:14:49.816Z,9.57
2017-03-01T14:15:59.682Z,9.58
2017-03-01T14:17:08.786Z,9.53
2017-03-01T14:18:18.656Z,9.51
2017-03-01T14:19:28.516Z,9.5
2017-03-01T14:20:38.419Z,9.54
2017-03-01T14:21:48.286Z,9.5
2017-03-01T14:22:58.136Z,9.4
2017-03-01T14:24:07.611Z,9.46
2017-03-01T14:25:17.073Z,9.35
2017-03-01T14:26:26.573Z,9.36
2017-03-01T14:27:35.662Z,9.33
2017-03-01T14:28:45.538Z,9.43
2017-03-01T14:29:55.005Z,9.32
2017-03-01T14:31:04.485Z,9.32
2017-03-01T14:32:14.344Z,9.4
2017-03-01T14:33:23.810Z,9.4
2017-03-01T14:34:32.508Z,9.58
2017-03-01T14:35:42.369Z,9.72
2017-03-01T14:36:51.851Z,9.69
2017-03-01T14:38:02.097Z,9.71
2017-03-01T14:39:11.574Z,9.74
2017-03-01T14:40:21.052Z,9.76
2017-03-01T14:41:30.515Z,9.75
2017-03-01T14:42:39.999Z,9.76
2017-03-01T14:43:49.865Z,9.89
2017-03-01T14:44:59.322Z,9.89
2017-03-01T14:46:08.446Z,9.76
2017-03-01T14:47:17.923Z,9.78
2017-03-01T14:48:27.417Z,9.79
2017-03-01T14:49:37.265Z,9.68
2017-03-01T14:50:46.357Z,9.64
2017-03-01T14:51:55.085Z,9.56
2017-03-01T14:53:04.944Z,9.46
2017-03-01T14:54:14.020Z,9.4
2017-03-01T14:55:23.103Z,9.43
2017-03-01T14:56:32.592Z,9.42
2017-03-01T14:57:42.054Z,9.38
2017-03-01T14:58:52.289Z,9.4
2017-03-01T15:00:02.147Z,9.38
2017-03-01T15:01:12.378Z,9.42
2017-03-01T15:02:21.509Z,9.39
2017-03-01T15:03:31.734Z,9.33
2017-03-01T15:04:40.820Z,9.18
2017-03-01T15:05:51.059Z,9.29
2017-03-01T15:07:00.143Z,9.35
2017-03-01T15:08:09.612Z,9.28
2017-03-01T15:09:19.510Z,9.21
2017-03-01T15:10:28.990Z,8.99
2017-03-01T15:11:38.862Z,8.94
2017-03-01T15:12:48.347Z,8.89
2017-03-01T15:13:57.827Z,8.87
2017-03-01T15:15:08.072Z,8.86
2017-03-01T15:16:17.949Z,8.84
2017-03-01T15:17:27.452Z,8.91
2017-03-01T15:18:37.299Z,8.96
2017-03-01T15:19:47.916Z,9.01
2017-03-01T15:20:57.407Z,8.95
2017-03-01T15:22:06.876Z,8.96
2017-03-01T15:23:15.975Z,8.95
2017-03-01T15:24:25.553Z,8.86
2017-03-01T15:25:35.033Z,8.81
2017-03-01T15:26:44.923Z,8.86
2017-03-01T15:27:54.416Z,8.94